sensor_id;sensor_type;location;lat;lon;timestamp;pressure;altitude;pressure_sealevel;temperature;humidity
44001;BME280;29660;42.892;24.710;2023-01-23T00:02:25;97331.72;;;3.27;100.00
44001;BME280;29660;42.892;24.710;2023-01-23T00:07:29;97408.13;;;3.74;100.00
44001;BME280;29660;42.892;24.710;2023-01-23T00:12:33;97366.75;;;3.51;100.00
44001;BME280;29660;42.892;24.710;2023-01-23T00:17:35;97357.06;;;3.28;100.00
44001;BME280;29660;42.892;24.710;2023-01-23T00:22:37;97644.41;;;5.04;100.00
44001;BME280;29660;42.892;24.710;2023-01-23T00:27:39;97665.59;;;4.92;100.00
44001;BME280;29660;42.892;24.710;2023-01-23T00:32:41;97469.69;;;3.91;100.00
44001;BME280;29660;42.892;24.710;2023-01-23T00:37:43;97354.78;;;3.08;100.00
44001;BME280;29660;42.892;24.710;2023-01-23T00:42:47;97598.22;;;4.66;100.00
44001;BME280;29660;42.892;24.710;2023-01-23T00:47:50;97606.00;;;4.73;100.00
44001;BME280;29660;42.892;24.710;2023-01-23T00:52:52;97612.13;;;4.61;100.00
44001;BME280;29660;42.892;24.710;2023-01-23T00:57:54;97352.94;;;2.85;100.00
44001;BME280;29660;42.892;24.710;2023-01-23T01:02:56;97417.09;;;3.14;100.00
44001;BME280;29660;42.892;24.710;2023-01-23T01:07:58;97135.03;;;1.51;100.00
44001;BME280;29660;42.892;24.710;2023-01-23T01:13:02;97602.38;;;4.38;100.00
44001;BME280;29660;42.892;24.710;2023-01-23T01:18:04;97392.69;;;2.95;100.00
44001;BME280;29660;42.892;24.710;2023-01-23T01:23:06;97548.22;;;4.24;100.00
44001;BME280;29660;42.892;24.710;2023-01-23T01:28:08;97378.13;;;3.04;100.00
44001;BME280;29660;42.892;24.710;2023-01-23T01:33:10;97705.09;;;4.99;100.00
44001;BME280;29660;42.892;24.710;2023-01-23T01:38:12;97689.94;;;4.94;100.00
44001;BME280;29660;42.892;24.710;2023-01-23T01:43:20;97681.78;;;4.96;100.00
44001;BME280;29660;42.892;24.710;2023-01-23T01:48:28;97432.78;;;3.20;100.00
44001;BME280;29660;42.892;24.710;2023-01-23T01:53:32;97530.47;;;3.73;100.00
44001;BME280;29660;42.892;24.710;2023-01-23T01:58:35;97476.00;;;3.31;100.00
44001;BME280;29660;42.892;24.710;2023-01-23T02:03:38;97706.44;;;4.61;100.00
44001;BME280;29660;42.892;24.710;2023-01-23T02:08:54;97733.63;;;4.61;100.00
44001;BME280;29660;42.892;24.710;2023-01-23T02:13:58;97710.78;;;4.55;100.00
44001;BME280;29660;42.892;24.710;2023-01-23T02:19:03;97688.28;;;4.53;100.00
44001;BME280;29660;42.892;24.710;2023-01-23T02:29:15;97500.97;;;3.17;100.00
44001;BME280;29660;42.892;24.710;2023-01-23T02:34:24;97547.56;;;3.58;100.00
44001;BME280;29660;42.892;24.710;2023-01-23T02:39:32;97717.78;;;4.73;100.00
44001;BME280;29660;42.892;24.710;2023-01-23T02:44:34;97665.78;;;4.27;100.00
44001;BME280;29660;42.892;24.710;2023-01-23T02:49:38;97574.31;;;3.62;100.00
44001;BME280;29660;42.892;24.710;2023-01-23T02:54:42;97470.56;;;2.91;100.00
44001;BME280;29660;42.892;24.710;2023-01-23T02:59:44;97728.34;;;4.61;100.00
44001;BME280;29660;42.892;24.710;2023-01-23T03:05:10;97700.09;;;4.38;100.00
44001;BME280;29660;42.892;24.710;2023-01-23T03:10:13;97703.88;;;4.42;100.00
44001;BME280;29660;42.892;24.710;2023-01-23T03:15:18;97731.56;;;4.63;100.00
44001;BME280;29660;42.892;24.710;2023-01-23T03:20:20;97472.22;;;3.15;100.00
44001;BME280;29660;42.892;24.710;2023-01-23T03:25:25;97465.69;;;3.30;100.00
44001;BME280;29660;42.892;24.710;2023-01-23T03:30:27;97418.56;;;2.98;100.00
44001;BME280;29660;42.892;24.710;2023-01-23T03:35:29;97716.81;;;4.91;100.00
44001;BME280;29660;42.892;24.710;2023-01-23T03:40:31;97663.72;;;4.52;100.00
44001;BME280;29660;42.892;24.710;2023-01-23T03:45:53;97717.50;;;4.98;100.00
44001;BME280;29660;42.892;24.710;2023-01-23T03:50:56;97491.25;;;3.53;100.00
44001;BME280;29660;42.892;24.710;2023-01-23T03:55:58;97647.97;;;4.57;100.00
44001;BME280;29660;42.892;24.710;2023-01-23T04:01:04;97636.97;;;4.37;100.00
44001;BME280;29660;42.892;24.710;2023-01-23T04:06:11;97450.66;;;3.07;100.00
44001;BME280;29660;42.892;24.710;2023-01-23T04:11:15;97457.56;;;3.19;100.00
44001;BME280;29660;42.892;24.710;2023-01-23T04:16:18;97468.31;;;3.30;100.00
44001;BME280;29660;42.892;24.710;2023-01-23T04:21:20;97669.09;;;4.34;100.00
44001;BME280;29660;42.892;24.710;2023-01-23T04:26:22;97520.94;;;3.48;100.00
44001;BME280;29660;42.892;24.710;2023-01-23T04:31:25;97565.00;;;3.83;100.00
44001;BME280;29660;42.892;24.710;2023-01-23T04:36:27;97541.50;;;3.58;100.00
44001;BME280;29660;42.892;24.710;2023-01-23T04:41:50;97418.56;;;2.98;100.00
44001;BME280;29660;42.892;24.710;2023-01-23T04:47:12;97533.00;;;3.44;100.00
44001;BME280;29660;42.892;24.710;2023-01-23T04:52:15;97731.56;;;4.63;100.00
44001;BME280;29660;42.892;24.710;2023-01-23T04:57:26;97541.50;;;3.46;100.00
44001;BME280;29660;42.892;24.710;2023-01-23T05:02:37;97501.91;;;3.23;100.00
44001;BME280;29660;42.892;24.710;2023-01-23T05:07:39;97792.56;;;4.74;100.00
44001;BME280;29660;42.892;24.710;2023-01-23T05:12:47;97782.59;;;4.76;100.00
44001;BME280;29660;42.892;24.710;2023-01-23T05:17:50;97717.88;;;4.31;100.00
44001;BME280;29660;42.892;24.710;2023-01-23T05:22:53;97738.31;;;4.36;100.00
44001;BME280;29660;42.892;24.710;2023-01-23T05:28:16;97805.66;;;4.68;100.00
44001;BME280;29660;42.892;24.710;2023-01-23T05:33:23;97770.00;;;4.36;100.00
44001;BME280;29660;42.892;24.710;2023-01-23T05:38:26;97639.56;;;3.66;100.00
44001;BME280;29660;42.892;24.710;2023-01-23T05:43:28;97824.63;;;4.65;100.00
44001;BME280;29660;42.892;24.710;2023-01-23T05:48:51;97698.47;;;4.02;100.00
44001;BME280;29660;42.892;24.710;2023-01-23T05:53:54;97571.25;;;3.23;100.00
44001;BME280;29660;42.892;24.710;2023-01-23T05:58:56;97807.34;;;4.51;100.00
44001;BME280;29660;42.892;24.710;2023-01-23T06:04:10;97660.41;;;3.68;100.00
44001;BME280;29660;42.892;24.710;2023-01-23T06:09:27;97836.44;;;4.75;100.00
44001;BME280;29660;42.892;24.710;2023-01-23T06:14:29;97627.56;;;3.40;100.00
44001;BME280;29660;42.892;24.710;2023-01-23T06:19:31;97789.00;;;4.56;100.00
44001;BME280;29660;42.892;24.710;2023-01-23T06:24:33;97596.47;;;3.31;100.00
44001;BME280;29660;42.892;24.710;2023-01-23T06:29:36;97861.41;;;5.02;100.00
44001;BME280;29660;42.892;24.710;2023-01-23T06:34:38;97709.72;;;4.09;100.00
44001;BME280;29660;42.892;24.710;2023-01-23T06:39:44;97713.72;;;4.00;100.00
44001;BME280;29660;42.892;24.710;2023-01-23T06:44:50;97610.03;;;3.46;100.00
44001;BME280;29660;42.892;24.710;2023-01-23T06:49:54;97640.91;;;3.69;100.00
44001;BME280;29660;42.892;24.710;2023-01-23T06:54:58;97676.06;;;3.81;100.00
44001;BME280;29660;42.892;24.710;2023-01-23T07:00:01;97686.75;;;3.98;100.00
44001;BME280;29660;42.892;24.710;2023-01-23T07:05:04;97795.44;;;4.84;100.00
44001;BME280;29660;42.892;24.710;2023-01-23T07:10:09;97398.72;;;2.30;100.00
44001;BME280;29660;42.892;24.710;2023-01-23T07:15:11;97811.53;;;4.94;100.00
44001;BME280;29660;42.892;24.710;2023-01-23T07:20:14;97874.63;;;5.37;100.00
44001;BME280;29660;42.892;24.710;2023-01-23T07:25:23;97892.66;;;5.52;100.00
44001;BME280;29660;42.892;24.710;2023-01-23T07:30:25;97856.53;;;5.46;100.00
44001;BME280;29660;42.892;24.710;2023-01-23T07:35:28;97704.22;;;4.58;100.00
44001;BME280;29660;42.892;24.710;2023-01-23T07:40:30;97688.84;;;4.43;100.00
44001;BME280;29660;42.892;24.710;2023-01-23T07:45:32;97902.31;;;5.82;100.00
44001;BME280;29660;42.892;24.710;2023-01-23T07:50:36;97656.00;;;4.39;100.00
44001;BME280;29660;42.892;24.710;2023-01-23T07:55:38;97678.16;;;4.61;100.00
44001;BME280;29660;42.892;24.710;2023-01-23T08:00:40;97689.50;;;4.85;100.00
44001;BME280;29660;42.892;24.710;2023-01-23T08:05:47;97880.94;;;6.12;100.00
44001;BME280;29660;42.892;24.710;2023-01-23T08:10:50;97651.03;;;4.78;100.00
44001;BME280;29660;42.892;24.710;2023-01-23T08:15:57;97843.00;;;6.23;100.00
44001;BME280;29660;42.892;24.710;2023-01-23T08:21:00;97866.47;;;6.48;100.00
44001;BME280;29660;42.892;24.710;2023-01-23T08:26:06;97651.34;;;5.22;100.00
44001;BME280;29660;42.892;24.710;2023-01-23T08:31:11;97901.56;;;7.01;100.00
44001;BME280;29660;42.892;24.710;2023-01-23T08:36:15;97655.81;;;5.50;100.00
44001;BME280;29660;42.892;24.710;2023-01-23T08:41:17;97637.75;;;5.58;100.00
44001;BME280;29660;42.892;24.710;2023-01-23T08:46:19;97923.66;;;7.40;100.00
44001;BME280;29660;42.892;24.710;2023-01-23T08:51:25;97873.66;;;7.32;100.00
44001;BME280;29660;42.892;24.710;2023-01-23T08:56:29;97918.97;;;7.86;100.00
44001;BME280;29660;42.892;24.710;2023-01-23T09:01:31;97904.94;;;7.69;100.00
44001;BME280;29660;42.892;24.710;2023-01-23T09:06:38;97910.75;;;8.09;100.00
44001;BME280;29660;42.892;24.710;2023-01-23T09:11:40;97901.13;;;8.03;100.00
44001;BME280;29660;42.892;24.710;2023-01-23T09:16:45;97727.22;;;7.13;100.00
44001;BME280;29660;42.892;24.710;2023-01-23T09:21:48;97891.09;;;8.59;100.00
44001;BME280;29660;42.892;24.710;2023-01-23T09:26:53;97836.19;;;8.43;100.00
44001;BME280;29660;42.892;24.710;2023-01-23T09:31:55;97783.84;;;8.44;100.00
44001;BME280;29660;42.892;24.710;2023-01-23T09:36:59;97654.94;;;7.82;100.00
44001;BME280;29660;42.892;24.710;2023-01-23T09:42:04;97905.47;;;9.65;100.00
44001;BME280;29660;42.892;24.710;2023-01-23T09:47:16;97626.03;;;8.18;98.99
44001;BME280;29660;42.892;24.710;2023-01-23T09:52:28;97649.22;;;8.70;97.78
44001;BME280;29660;42.892;24.710;2023-01-23T09:57:41;97640.19;;;8.71;93.07
44001;BME280;29660;42.892;24.710;2023-01-23T10:02:46;97716.03;;;9.36;95.45
44001;BME280;29660;42.892;24.710;2023-01-23T10:08:18;97771.31;;;9.92;95.30
44001;BME280;29660;42.892;24.710;2023-01-23T10:18:52;97612.22;;;9.46;91.79
44001;BME280;29660;42.892;24.710;2023-01-23T10:29:45;97851.44;;;10.94;91.63
44001;BME280;29660;42.892;24.710;2023-01-23T10:35:16;97847.94;;;11.19;90.29
44001;BME280;29660;42.892;24.710;2023-01-23T10:40:23;97671.41;;;10.20;90.01
44001;BME280;29660;42.892;24.710;2023-01-23T10:45:45;97719.94;;;10.63;91.03
44001;BME280;29660;42.892;24.710;2023-01-23T10:50:49;97613.84;;;10.08;87.26
44001;BME280;29660;42.892;24.710;2023-01-23T10:55:56;97615.44;;;10.15;87.58
44001;BME280;29660;42.892;24.710;2023-01-23T11:00:59;97794.38;;;11.70;88.09
44001;BME280;29660;42.892;24.710;2023-01-23T11:06:02;97823.69;;;11.95;83.11
44001;BME280;29660;42.892;24.710;2023-01-23T11:16:25;97566.13;;;10.22;86.74
44001;BME280;29660;42.892;24.710;2023-01-23T11:21:30;97585.03;;;10.36;83.72
44001;BME280;29660;42.892;24.710;2023-01-23T11:26:35;97697.19;;;11.01;82.87
44001;BME280;29660;42.892;24.710;2023-01-23T11:31:39;97641.53;;;10.48;84.93
44001;BME280;29660;42.892;24.710;2023-01-23T11:41:46;97599.47;;;9.79;85.41
44001;BME280;29660;42.892;24.710;2023-01-23T11:52:42;97791.41;;;10.71;86.06
44001;BME280;29660;42.892;24.710;2023-01-23T12:03:41;97828.78;;;10.71;87.47
44001;BME280;29660;42.892;24.710;2023-01-23T12:09:10;97829.56;;;10.66;87.97
44001;BME280;29660;42.892;24.710;2023-01-23T12:30:39;97835.44;;;10.63;87.73
44001;BME280;29660;42.892;24.710;2023-01-23T12:46:32;97829.81;;;10.65;88.30
44001;BME280;29660;42.892;24.710;2023-01-23T12:51:36;97830.38;;;10.77;87.97
44001;BME280;29660;42.892;24.710;2023-01-23T12:56:40;97806.88;;;10.48;86.60
44001;BME280;29660;42.892;24.710;2023-01-23T13:01:49;97851.97;;;10.60;87.23
44001;BME280;29660;42.892;24.710;2023-01-23T13:07:15;97843.41;;;10.48;88.12
44001;BME280;29660;42.892;24.710;2023-01-23T13:12:24;97809.81;;;10.26;88.25
44001;BME280;29660;42.892;24.710;2023-01-23T13:17:31;97847.94;;;10.47;88.24
44001;BME280;29660;42.892;24.710;2023-01-23T13:22:35;97583.31;;;8.77;88.00
44001;BME280;29660;42.892;24.710;2023-01-23T13:27:41;97535.31;;;8.41;88.63
44001;BME280;29660;42.892;24.710;2023-01-23T13:32:48;97866.06;;;10.40;88.89
44001;BME280;29660;42.892;24.710;2023-01-23T13:37:52;97877.25;;;10.37;88.70
44001;BME280;29660;42.892;24.710;2023-01-23T13:42:54;97653.63;;;8.96;89.03
44001;BME280;29660;42.892;24.710;2023-01-23T13:48:41;97871.91;;;10.27;89.56
44001;BME280;29660;42.892;24.710;2023-01-23T13:54:27;97619.13;;;8.64;89.63
44001;BME280;29660;42.892;24.710;2023-01-23T14:00:04;97620.97;;;8.58;89.90
44001;BME280;29660;42.892;24.710;2023-01-23T14:05:25;97902.75;;;10.18;90.50
44001;BME280;29660;42.892;24.710;2023-01-23T14:10:46;97858.41;;;9.86;91.07
44001;BME280;29660;42.892;24.710;2023-01-23T14:16:11;97911.75;;;9.96;90.62
44001;BME280;29660;42.892;24.710;2023-01-23T14:21:32;97801.66;;;9.18;91.61
44001;BME280;29660;42.892;24.710;2023-01-23T14:26:52;97697.47;;;8.46;91.89
44001;BME280;29660;42.892;24.710;2023-01-23T14:31:57;97708.34;;;8.45;92.50
44001;BME280;29660;42.892;24.710;2023-01-23T14:37:03;97883.56;;;9.53;92.68
44001;BME280;29660;42.892;24.710;2023-01-23T14:42:06;97886.75;;;9.50;93.74
44001;BME280;29660;42.892;24.710;2023-01-23T14:47:15;97916.88;;;9.55;95.59
44001;BME280;29660;42.892;24.710;2023-01-23T14:52:29;97862.22;;;9.00;96.63
44001;BME280;29660;42.892;24.710;2023-01-23T14:57:31;97883.69;;;8.94;96.82
44001;BME280;29660;42.892;24.710;2023-01-23T15:02:34;97923.00;;;9.19;96.44
44001;BME280;29660;42.892;24.710;2023-01-23T15:08:01;97864.44;;;8.49;98.20
44001;BME280;29660;42.892;24.710;2023-01-23T15:13:56;97683.09;;;7.29;97.97
44001;BME280;29660;42.892;24.710;2023-01-23T15:18:34;97903.91;;;8.63;98.93
44001;BME280;29660;42.892;24.710;2023-01-23T15:23:38;97734.44;;;7.18;100.00
44001;BME280;29660;42.892;24.710;2023-01-23T15:33:53;97885.78;;;7.88;100.00
44001;BME280;29660;42.892;24.710;2023-01-23T15:38:56;97930.78;;;7.95;100.00
44001;BME280;29660;42.892;24.710;2023-01-23T15:43:58;97979.16;;;8.19;100.00
44001;BME280;29660;42.892;24.710;2023-01-23T15:49:01;97985.22;;;8.15;100.00
44001;BME280;29660;42.892;24.710;2023-01-23T15:54:05;97934.28;;;7.79;100.00
44001;BME280;29660;42.892;24.710;2023-01-23T15:59:14;97843.81;;;7.25;100.00
44001;BME280;29660;42.892;24.710;2023-01-23T16:04:17;97772.69;;;6.66;100.00
44001;BME280;29660;42.892;24.710;2023-01-23T16:09:32;97735.06;;;6.30;100.00
44001;BME280;29660;42.892;24.710;2023-01-23T16:14:35;97906.19;;;7.44;100.00
44001;BME280;29660;42.892;24.710;2023-01-23T16:19:37;97778.31;;;6.36;100.00
44001;BME280;29660;42.892;24.710;2023-01-23T16:24:40;97783.53;;;6.31;100.00
44001;BME280;29660;42.892;24.710;2023-01-23T16:29:42;98018.22;;;7.63;100.00
44001;BME280;29660;42.892;24.710;2023-01-23T16:34:44;97991.13;;;7.44;100.00
44001;BME280;29660;42.892;24.710;2023-01-23T16:39:49;98028.03;;;7.62;100.00
44001;BME280;29660;42.892;24.710;2023-01-23T16:44:51;97974.47;;;7.32;100.00
44001;BME280;29660;42.892;24.710;2023-01-23T16:49:53;98008.41;;;7.63;100.00
44001;BME280;29660;42.892;24.710;2023-01-23T16:54:55;97731.44;;;5.74;100.00
44001;BME280;29660;42.892;24.710;2023-01-23T16:59:57;98034.13;;;7.46;100.00
44001;BME280;29660;42.892;24.710;2023-01-23T17:04:59;98024.03;;;7.43;100.00
44001;BME280;29660;42.892;24.710;2023-01-23T17:10:01;98034.13;;;7.46;100.00
44001;BME280;29660;42.892;24.710;2023-01-23T17:15:03;97768.28;;;5.64;100.00
44001;BME280;29660;42.892;24.710;2023-01-23T17:20:09;97539.66;;;4.05;100.00
44001;BME280;29660;42.892;24.710;2023-01-23T17:25:16;98047.78;;;7.21;100.00
44001;BME280;29660;42.892;24.710;2023-01-23T17:30:23;97976.47;;;6.62;100.00
44001;BME280;29660;42.892;24.710;2023-01-23T17:35:35;98000.66;;;6.66;100.00
44001;BME280;29660;42.892;24.710;2023-01-23T17:40:43;97764.38;;;5.14;100.00
44001;BME280;29660;42.892;24.710;2023-01-23T17:45:48;97831.34;;;5.55;100.00
44001;BME280;29660;42.892;24.710;2023-01-23T17:50:50;97956.06;;;6.34;100.00
44001;BME280;29660;42.892;24.710;2023-01-23T17:55:52;97796.00;;;5.09;100.00
44001;BME280;29660;42.892;24.710;2023-01-23T18:00:55;98055.97;;;6.62;100.00
44001;BME280;29660;42.892;24.710;2023-01-23T18:05:57;97854.47;;;5.48;100.00
44001;BME280;29660;42.892;24.710;2023-01-23T18:10:58;97970.38;;;6.22;100.00
44001;BME280;29660;42.892;24.710;2023-01-23T18:16:24;98080.06;;;7.01;100.00
44001;BME280;29660;42.892;24.710;2023-01-23T18:21:26;97997.94;;;6.49;100.00
44001;BME280;29660;42.892;24.710;2023-01-23T18:26:36;98092.78;;;6.87;100.00
44001;BME280;29660;42.892;24.710;2023-01-23T18:42:23;98114.91;;;6.93;100.00
44001;BME280;29660;42.892;24.710;2023-01-23T18:47:30;97821.75;;;5.14;100.00
44001;BME280;29660;42.892;24.710;2023-01-23T18:52:45;98107.75;;;6.94;100.00
44001;BME280;29660;42.892;24.710;2023-01-23T19:03:15;97842.34;;;5.12;100.00
44001;BME280;29660;42.892;24.710;2023-01-23T19:08:28;98141.72;;;6.80;100.00
44001;BME280;29660;42.892;24.710;2023-01-23T19:13:43;98030.94;;;6.30;100.00
44001;BME280;29660;42.892;24.710;2023-01-23T19:19:33;98126.44;;;6.87;100.00
44001;BME280;29660;42.892;24.710;2023-01-23T19:24:40;98141.59;;;6.75;100.00
44001;BME280;29660;42.892;24.710;2023-01-23T19:29:42;97855.22;;;4.97;100.00
44001;BME280;29660;42.892;24.710;2023-01-23T19:34:46;97648.81;;;3.57;100.00
44001;BME280;29660;42.892;24.710;2023-01-23T19:39:48;97864.81;;;4.79;100.00
44001;BME280;29660;42.892;24.710;2023-01-23T19:44:50;98133.47;;;6.41;100.00
44001;BME280;29660;42.892;24.710;2023-01-23T19:49:52;97861.03;;;4.75;100.00
44001;BME280;29660;42.892;24.710;2023-01-23T19:54:54;97863.56;;;4.70;100.00
44001;BME280;29660;42.892;24.710;2023-01-23T19:59:56;97910.09;;;4.83;100.00
44001;BME280;29660;42.892;24.710;2023-01-23T20:04:58;98133.91;;;6.14;100.00
44001;BME280;29660;42.892;24.710;2023-01-23T20:10:00;97802.56;;;4.06;100.00
44001;BME280;29660;42.892;24.710;2023-01-23T20:15:02;98110.53;;;6.11;100.00
44001;BME280;29660;42.892;24.710;2023-01-23T20:20:05;97898.16;;;4.68;100.00
44001;BME280;29660;42.892;24.710;2023-01-23T20:25:12;98027.03;;;5.50;100.00
44001;BME280;29660;42.892;24.710;2023-01-23T20:30:17;97906.19;;;4.74;100.00
44001;BME280;29660;42.892;24.710;2023-01-23T20:35:20;97965.97;;;4.86;100.00
44001;BME280;29660;42.892;24.710;2023-01-23T20:40:24;98140.91;;;5.97;100.00
44001;BME280;29660;42.892;24.710;2023-01-23T20:45:28;98099.03;;;5.52;100.00
44001;BME280;29660;42.892;24.710;2023-01-23T20:50:30;97928.81;;;4.39;100.00
44001;BME280;29660;42.892;24.710;2023-01-23T20:55:34;98132.63;;;5.52;100.00
44001;BME280;29660;42.892;24.710;2023-01-23T21:00:36;98181.66;;;5.54;100.00
44001;BME280;29660;42.892;24.710;2023-01-23T21:05:38;97940.19;;;3.91;100.00
44001;BME280;29660;42.892;24.710;2023-01-23T21:10:41;98191.84;;;5.21;100.00
44001;BME280;29660;42.892;24.710;2023-01-23T21:15:43;98101.72;;;4.74;100.00
44001;BME280;29660;42.892;24.710;2023-01-23T21:20:45;98134.63;;;4.78;100.00
44001;BME280;29660;42.892;24.710;2023-01-23T21:25:47;97885.09;;;3.03;100.00
44001;BME280;29660;42.892;24.710;2023-01-23T21:30:48;98191.00;;;4.72;100.00
44001;BME280;29660;42.892;24.710;2023-01-23T21:35:53;98155.00;;;4.34;100.00
44001;BME280;29660;42.892;24.710;2023-01-23T21:40:55;98129.16;;;4.17;100.00
44001;BME280;29660;42.892;24.710;2023-01-23T21:45:57;98060.34;;;3.44;100.00
44001;BME280;29660;42.892;24.710;2023-01-23T21:56:16;97918.38;;;2.41;100.00
44001;BME280;29660;42.892;24.710;2023-01-23T22:01:24;98205.44;;;4.26;100.00
44001;BME280;29660;42.892;24.710;2023-01-23T22:07:01;98187.44;;;3.91;100.00
44001;BME280;29660;42.892;24.710;2023-01-23T22:12:06;97998.81;;;2.68;100.00
44001;BME280;29660;42.892;24.710;2023-01-23T22:17:08;98116.09;;;3.16;100.00
44001;BME280;29660;42.892;24.710;2023-01-23T22:22:10;98024.63;;;2.53;100.00
44001;BME280;29660;42.892;24.710;2023-01-23T22:27:14;97998.97;;;2.35;100.00
44001;BME280;29660;42.892;24.710;2023-01-23T22:32:34;98227.97;;;3.72;100.00
44001;BME280;29660;42.892;24.710;2023-01-23T22:37:36;98217.91;;;3.55;100.00
44001;BME280;29660;42.892;24.710;2023-01-23T22:42:40;98174.91;;;3.16;100.00
44001;BME280;29660;42.892;24.710;2023-01-23T22:47:42;97932.44;;;1.57;100.00
44001;BME280;29660;42.892;24.710;2023-01-23T22:52:45;97936.91;;;1.56;100.00
44001;BME280;29660;42.892;24.710;2023-01-23T22:57:51;98196.38;;;3.27;100.00
44001;BME280;29660;42.892;24.710;2023-01-23T23:02:53;98242.69;;;3.54;100.00
44001;BME280;29660;42.892;24.710;2023-01-23T23:07:55;98003.09;;;2.11;100.00
44001;BME280;29660;42.892;24.710;2023-01-23T23:12:57;98209.31;;;3.35;100.00
44001;BME280;29660;42.892;24.710;2023-01-23T23:17:59;98042.34;;;2.19;100.00
44001;BME280;29660;42.892;24.710;2023-01-23T23:23:01;97965.59;;;1.64;100.00
44001;BME280;29660;42.892;24.710;2023-01-23T23:28:04;98232.31;;;3.14;100.00
44001;BME280;29660;42.892;24.710;2023-01-23T23:33:06;98010.88;;;1.80;100.00
44001;BME280;29660;42.892;24.710;2023-01-23T23:38:08;97976.72;;;1.60;100.00
44001;BME280;29660;42.892;24.710;2023-01-23T23:43:11;97966.66;;;1.50;100.00
44001;BME280;29660;42.892;24.710;2023-01-23T23:48:13;98124.09;;;2.44;100.00
44001;BME280;29660;42.892;24.710;2023-01-23T23:53:16;97905.03;;;1.13;100.00
44001;BME280;29660;42.892;24.710;2023-01-23T23:58:18;97964.84;;;1.44;100.00
